createdAt,value
2018-03-27T00:00:53.598Z,26.77
2018-03-27T00:03:21.064Z,24.23
2018-03-27T00:05:48.526Z,27.80
2018-03-27T00:08:16.759Z,21.53
2018-03-27T00:10:44.235Z,22.60
2018-03-27T00:13:11.682Z,20.50
2018-03-27T00:15:39.143Z,26.30
2018-03-27T00:18:06.620Z,24.30
2018-03-27T00:20:34.845Z,23.87
2018-03-27T00:23:02.320Z,22.93
2018-03-27T00:25:29.799Z,22.90
2018-03-27T00:28:09.275Z,26.57
2018-03-27T00:30:48.779Z,15.60
2018-03-27T00:33:28.100Z,18.33
2018-03-27T00:36:07.502Z,17.13
2018-03-27T00:38:46.959Z,16.83
2018-03-27T00:41:20.054Z,17.83
2018-03-27T00:43:47.514Z,17.60
2018-03-27T00:46:14.992Z,39.30
2018-03-27T00:48:42.454Z,37.83
2018-03-27T00:51:09.924Z,28.17
2018-03-27T00:53:38.146Z,20.07
2018-03-27T00:56:05.611Z,15.90
2018-03-27T00:58:33.098Z,17.60
2018-03-27T01:01:00.558Z,24.87
2018-03-27T01:03:28.369Z,18.53
2018-03-27T01:05:55.834Z,18.50
2018-03-27T01:08:23.303Z,17.47
2018-03-27T01:10:50.767Z,24.30
2018-03-27T01:13:19.012Z,17.50
2018-03-27T01:15:46.479Z,32.33
2018-03-27T01:18:13.945Z,19.13
2018-03-27T01:20:42.184Z,22.47
2018-03-27T01:23:09.641Z,23.63
2018-03-27T01:25:37.122Z,24.50
2018-03-27T01:28:04.606Z,21.00
2018-03-27T01:30:32.070Z,18.47
2018-03-27T01:32:59.540Z,19.87
2018-03-27T01:35:27.018Z,20.83
2018-03-27T01:37:55.258Z,22.87
2018-03-27T01:40:22.725Z,20.97
2018-03-27T01:42:50.197Z,23.70
2018-03-27T01:45:18.427Z,21.20
2018-03-27T01:47:46.654Z,18.10
2018-03-27T01:50:14.886Z,22.60
2018-03-27T01:52:42.367Z,21.93
2018-03-27T01:55:09.826Z,23.37
2018-03-27T01:57:38.075Z,19.73
2018-03-27T02:00:05.540Z,19.60
2018-03-27T02:02:33.014Z,20.67
2018-03-27T02:05:00.487Z,22.70
2018-03-27T02:07:28.730Z,23.50
2018-03-27T02:09:56.194Z,20.27
2018-03-27T02:12:30.011Z,26.33
2018-03-27T02:15:03.976Z,25.03
2018-03-27T02:17:37.154Z,24.70
2018-03-27T02:20:10.457Z,27.57
2018-03-27T02:22:38.534Z,25.40
2018-03-27T02:25:05.997Z,21.47
2018-03-27T02:27:33.477Z,20.00
2018-03-27T02:30:00.959Z,23.33
2018-03-27T02:32:29.206Z,36.20
2018-03-27T02:34:56.737Z,26.83
2018-03-27T02:37:24.155Z,22.80
2018-03-27T02:39:51.639Z,31.10
2018-03-27T02:42:19.098Z,27.07
2018-03-27T02:44:46.582Z,30.17
2018-03-27T02:47:14.054Z,25.23
2018-03-27T02:49:41.508Z,32.60
2018-03-27T02:52:08.992Z,30.40
2018-03-27T02:54:37.314Z,30.63
2018-03-27T02:57:05.506Z,41.43
2018-03-27T02:59:32.987Z,27.07
2018-03-27T03:02:00.454Z,29.60
2018-03-27T03:04:28.691Z,31.77
2018-03-27T03:06:56.176Z,37.47
2018-03-27T03:09:24.402Z,28.20
2018-03-27T03:11:51.879Z,32.40
2018-03-27T03:14:19.355Z,37.53
2018-03-27T03:16:46.814Z,29.23
2018-03-27T03:19:14.303Z,26.47
2018-03-27T03:21:43.534Z,30.03
2018-03-27T03:24:11.006Z,31.73
2018-03-27T03:26:38.462Z,30.57
2018-03-27T03:29:05.938Z,31.17
2018-03-27T03:31:33.398Z,33.10
2018-03-27T03:34:00.858Z,39.73
2018-03-27T03:36:29.105Z,27.77
2018-03-27T03:38:56.579Z,27.30
2018-03-27T03:41:24.055Z,30.03
2018-03-27T03:43:52.309Z,32.67
2018-03-27T03:46:19.780Z,27.93
2018-03-27T03:48:48.008Z,36.80
2018-03-27T03:51:15.484Z,41.67
2018-03-27T03:53:43.627Z,37.97
2018-03-27T03:56:11.186Z,49.00
2018-03-27T03:58:38.661Z,45.97
2018-03-27T04:01:06.896Z,51.80
2018-03-27T04:03:36.019Z,50.77
2018-03-27T04:06:04.354Z,49.67
2018-03-27T04:08:32.590Z,60.20
2018-03-27T04:11:00.056Z,60.80
2018-03-27T04:13:27.547Z,50.83
2018-03-27T04:15:55.771Z,49.00
2018-03-27T04:18:23.241Z,39.57
2018-03-27T04:20:50.817Z,39.90
2018-03-27T04:23:18.275Z,49.97
2018-03-27T04:25:45.747Z,62.30
2018-03-27T04:28:13.986Z,46.10
2018-03-27T04:30:41.459Z,55.37
2018-03-27T04:33:08.938Z,70.63
2018-03-27T04:35:37.189Z,76.60
2018-03-27T04:38:04.658Z,74.33
2018-03-27T04:40:32.162Z,67.43
2018-03-27T04:42:59.617Z,68.63
2018-03-27T04:45:27.085Z,69.03
2018-03-27T04:47:54.565Z,78.23
2018-03-27T04:50:22.257Z,52.53
2018-03-27T04:52:49.715Z,95.13
2018-03-27T04:55:17.955Z,70.83
2018-03-27T04:57:45.422Z,81.53
2018-03-27T05:00:12.887Z,83.07
2018-03-27T05:02:40.363Z,69.87
2018-03-27T05:05:08.593Z,60.30
2018-03-27T05:07:36.062Z,69.60
2018-03-27T05:10:03.586Z,80.87
2018-03-27T05:12:31.047Z,76.73
2018-03-27T05:14:58.506Z,55.93
2018-03-27T05:17:25.989Z,69.43
2018-03-27T05:19:53.458Z,71.20
2018-03-27T05:22:20.923Z,64.10
2018-03-27T05:24:48.400Z,75.83
2018-03-27T05:27:16.638Z,80.47
2018-03-27T05:29:44.101Z,66.90
2018-03-27T05:32:11.610Z,65.57
2018-03-27T05:34:39.807Z,80.80
2018-03-27T05:37:07.278Z,57.80
2018-03-27T05:39:34.765Z,69.17
2018-03-27T05:42:02.987Z,71.43
2018-03-27T05:44:30.462Z,72.37
2018-03-27T05:46:57.995Z,79.77
2018-03-27T05:49:25.455Z,69.77
2018-03-27T05:51:52.915Z,87.43
2018-03-27T05:54:22.064Z,74.23
2018-03-27T05:56:50.307Z,71.97
2018-03-27T05:59:17.775Z,67.77
2018-03-27T06:01:45.264Z,65.87
2018-03-27T06:04:13.501Z,65.27
2018-03-27T06:06:40.970Z,57.83
2018-03-27T06:09:08.446Z,60.63
2018-03-27T06:11:36.687Z,71.97
2018-03-27T06:14:05.064Z,71.57
2018-03-27T06:16:32.569Z,72.97
2018-03-27T06:19:00.778Z,73.47
2018-03-27T06:21:28.241Z,61.70
2018-03-27T06:23:56.515Z,63.00
2018-03-27T06:26:23.981Z,58.90
2018-03-27T06:28:51.439Z,64.23
2018-03-27T06:31:18.925Z,66.33
2018-03-27T06:33:46.416Z,64.03
2018-03-27T06:36:13.839Z,62.10
2018-03-27T06:38:41.314Z,67.63
2018-03-27T06:41:09.547Z,63.87
2018-03-27T06:43:36.998Z,64.63
2018-03-27T06:46:04.486Z,57.07
2018-03-27T06:48:31.943Z,58.97
2018-03-27T06:51:00.198Z,63.43
2018-03-27T06:53:27.667Z,61.70
2018-03-27T06:55:55.128Z,54.70
2018-03-27T06:58:24.096Z,50.70
2018-03-27T07:00:51.580Z,50.50
2018-03-27T07:03:19.045Z,47.43
2018-03-27T07:05:47.272Z,49.60
2018-03-27T07:08:14.765Z,49.20
2018-03-27T07:10:43.086Z,52.37
2018-03-27T07:13:11.930Z,49.80
2018-03-27T07:15:39.399Z,51.47
2018-03-27T07:18:07.631Z,50.77
2018-03-27T07:20:35.102Z,49.47
2018-03-27T07:23:02.631Z,50.07
2018-03-27T07:25:30.094Z,48.50
2018-03-27T07:27:57.548Z,49.90
2018-03-27T07:30:25.030Z,50.87
2018-03-27T07:32:52.490Z,45.77
2018-03-27T07:35:19.955Z,44.20
2018-03-27T07:37:47.429Z,46.17
2018-03-27T07:40:15.680Z,52.10
2018-03-27T07:42:43.147Z,43.07
2018-03-27T07:45:10.631Z,48.00
2018-03-27T07:47:38.868Z,43.03
2018-03-27T07:50:06.323Z,44.90
2018-03-27T07:52:33.794Z,43.97
2018-03-27T07:55:02.262Z,49.77
2018-03-27T07:57:29.714Z,38.60
2018-03-27T07:59:57.196Z,37.93
2018-03-27T08:02:24.656Z,40.43
2018-03-27T08:04:52.889Z,35.70
2018-03-27T08:07:20.370Z,36.37
2018-03-27T08:09:47.826Z,30.10
2018-03-27T08:12:16.064Z,34.10
2018-03-27T08:14:44.387Z,38.30
2018-03-27T08:17:11.843Z,32.03
2018-03-27T08:19:39.299Z,36.03
2018-03-27T08:22:06.766Z,35.90
2018-03-27T08:24:35.002Z,33.10
2018-03-27T08:27:02.508Z,35.03
2018-03-27T08:29:30.762Z,40.13
2018-03-27T08:31:58.219Z,31.23
2018-03-27T08:34:25.717Z,29.83
2018-03-27T08:36:53.934Z,30.77
2018-03-27T08:39:21.399Z,23.60
2018-03-27T08:41:48.859Z,20.17
2018-03-27T08:44:16.332Z,29.53
2018-03-27T08:46:44.567Z,28.37
2018-03-27T08:49:12.039Z,27.60
2018-03-27T08:51:39.903Z,24.30
2018-03-27T08:54:08.192Z,28.60
2018-03-27T08:56:35.610Z,28.30
2018-03-27T08:59:03.103Z,27.80
2018-03-27T09:01:30.571Z,25.90
2018-03-27T09:03:58.035Z,37.07
2018-03-27T09:06:26.282Z,23.40
2018-03-27T09:08:53.756Z,26.77
2018-03-27T09:11:21.220Z,22.43
2018-03-27T09:13:48.704Z,25.03
2018-03-27T09:16:16.177Z,20.57
2018-03-27T09:18:43.624Z,26.30
2018-03-27T09:21:11.104Z,22.10
2018-03-27T09:23:38.569Z,25.27
2018-03-27T09:26:06.030Z,23.77
2018-03-27T09:28:33.544Z,23.97
2018-03-27T09:31:01.010Z,23.10
2018-03-27T09:33:28.454Z,23.93
2018-03-27T09:35:55.937Z,24.50
2018-03-27T09:38:24.967Z,22.60
2018-03-27T09:40:52.422Z,20.77
2018-03-27T09:43:19.904Z,23.47
2018-03-27T09:45:48.132Z,21.03
2018-03-27T09:48:15.614Z,23.47
2018-03-27T09:50:43.091Z,24.03
2018-03-27T09:53:11.318Z,21.30
2018-03-27T09:55:38.775Z,19.83
2018-03-27T09:58:06.255Z,19.13
2018-03-27T10:00:39.378Z,17.57
2018-03-27T10:03:07.630Z,19.57
2018-03-27T10:05:35.097Z,17.00
2018-03-27T10:08:03.218Z,18.53
2018-03-27T10:10:30.727Z,20.20
2018-03-27T10:12:59.976Z,20.47
2018-03-27T10:15:27.427Z,20.13
2018-03-27T10:17:54.895Z,29.97
2018-03-27T10:20:23.145Z,19.47
2018-03-27T10:22:50.611Z,19.20
2018-03-27T10:25:18.087Z,19.93
2018-03-27T10:27:45.552Z,21.50
2018-03-27T10:30:13.011Z,18.50
2018-03-27T10:32:40.490Z,18.83
2018-03-27T10:35:07.958Z,18.90
2018-03-27T10:37:36.179Z,22.63
2018-03-27T10:40:04.393Z,20.00
2018-03-27T10:42:31.856Z,22.63
2018-03-27T10:44:59.319Z,19.27
2018-03-27T10:47:27.566Z,15.20
2018-03-27T10:49:55.039Z,14.40
2018-03-27T10:52:22.546Z,15.50
2018-03-27T10:54:50.031Z,13.87
2018-03-27T10:57:17.493Z,16.33
2018-03-27T10:59:45.017Z,17.70
2018-03-27T11:02:12.490Z,18.03
2018-03-27T11:04:39.960Z,21.77
2018-03-27T11:07:07.435Z,21.93
2018-03-27T11:09:34.935Z,18.80
2018-03-27T11:12:02.631Z,17.67
2018-03-27T11:14:30.094Z,17.90
2018-03-27T11:16:57.578Z,26.53
2018-03-27T11:19:25.064Z,24.73
2018-03-27T11:21:53.288Z,21.03
2018-03-27T11:24:20.773Z,27.50
2018-03-27T11:26:48.995Z,20.57
2018-03-27T11:29:16.475Z,20.33
2018-03-27T11:31:43.988Z,23.57
2018-03-27T11:34:11.453Z,19.60
2018-03-27T11:36:38.914Z,19.97
2018-03-27T11:39:06.392Z,22.00
2018-03-27T11:41:33.847Z,21.57
2018-03-27T11:44:01.310Z,18.80
2018-03-27T11:46:28.803Z,26.40
2018-03-27T11:48:56.268Z,17.13
2018-03-27T11:51:24.508Z,22.87
2018-03-27T11:53:51.974Z,17.03
2018-03-27T11:56:19.438Z,17.90
2018-03-27T11:58:46.908Z,21.27
2018-03-27T12:01:15.147Z,16.87
2018-03-27T12:03:43.116Z,14.90
2018-03-27T12:06:10.571Z,20.97
2018-03-27T12:08:38.047Z,21.83
2018-03-27T12:11:05.512Z,21.03
2018-03-27T12:13:32.978Z,23.27
2018-03-27T12:16:01.223Z,19.47
2018-03-27T12:18:28.677Z,22.33
2018-03-27T12:20:56.143Z,17.80
2018-03-27T12:23:23.632Z,20.20
2018-03-27T12:25:51.861Z,22.20
2018-03-27T12:28:19.317Z,18.53
2018-03-27T12:30:46.800Z,23.27
2018-03-27T12:33:14.271Z,26.87
2018-03-27T12:35:42.565Z,28.33
2018-03-27T12:38:10.797Z,33.30
2018-03-27T12:40:38.260Z,28.97
2018-03-27T12:43:05.716Z,22.40
2018-03-27T12:45:33.199Z,25.50
2018-03-27T12:48:01.431Z,24.77
2018-03-27T12:50:28.898Z,21.83
2018-03-27T12:52:56.363Z,32.03
2018-03-27T12:55:24.078Z,29.80
2018-03-27T12:57:51.543Z,27.73
2018-03-27T13:00:19.044Z,27.50
2018-03-27T13:02:46.526Z,28.00
2018-03-27T13:05:14.758Z,31.47
2018-03-27T13:07:42.235Z,27.60
2018-03-27T13:10:09.687Z,31.40
2018-03-27T13:12:37.152Z,27.23
2018-03-27T13:15:04.625Z,30.43
2018-03-27T13:17:32.848Z,33.50
2018-03-27T13:20:00.310Z,25.10
2018-03-27T13:22:27.788Z,35.33
2018-03-27T13:24:55.252Z,34.47
2018-03-27T13:27:22.723Z,29.00
2018-03-27T13:29:50.979Z,31.50
2018-03-27T13:32:18.450Z,38.30
2018-03-27T13:34:45.890Z,32.40
2018-03-27T13:37:13.378Z,26.47
2018-03-27T13:39:40.871Z,32.20
2018-03-27T13:42:08.339Z,31.13
2018-03-27T13:44:35.806Z,33.97
2018-03-27T13:47:03.275Z,32.67
2018-03-27T13:49:30.734Z,33.00
2018-03-27T13:51:58.272Z,33.33
2018-03-27T13:54:25.731Z,29.30
2018-03-27T13:56:53.201Z,36.53
2018-03-27T13:59:20.682Z,30.03
2018-03-27T14:01:48.906Z,34.73
2018-03-27T14:04:16.372Z,31.90
2018-03-27T14:06:44.639Z,35.23
2018-03-27T14:09:12.098Z,32.10
2018-03-27T14:11:39.558Z,28.33
2018-03-27T14:14:07.051Z,23.70
2018-03-27T14:16:34.534Z,15.10
2018-03-27T14:19:02.222Z,16.73
2018-03-27T14:21:29.699Z,13.73
2018-03-27T14:23:57.174Z,14.33
2018-03-27T14:26:24.727Z,17.47
2018-03-27T14:28:52.980Z,11.20
2018-03-27T14:31:20.444Z,13.80
2018-03-27T14:33:47.906Z,12.20
2018-03-27T14:36:15.847Z,12.17
2018-03-27T14:38:43.307Z,14.83
2018-03-27T14:41:10.763Z,16.40
2018-03-27T14:43:38.251Z,20.13
2018-03-27T14:46:05.720Z,20.00
2018-03-27T14:48:33.190Z,20.10
2018-03-27T14:51:01.450Z,23.60
2018-03-27T14:53:28.920Z,25.57
2018-03-27T14:55:57.147Z,30.53
2018-03-27T14:58:24.638Z,29.17
2018-03-27T15:00:52.101Z,31.43
2018-03-27T15:03:19.569Z,21.20
2018-03-27T15:05:47.855Z,23.93
2018-03-27T15:08:16.083Z,21.30
2018-03-27T15:10:44.252Z,23.50
2018-03-27T15:13:11.836Z,31.63
2018-03-27T15:15:39.305Z,19.67
2018-03-27T15:18:07.541Z,24.23
2018-03-27T15:20:35.038Z,17.10
2018-03-27T15:23:03.303Z,23.30
2018-03-27T15:25:32.275Z,21.00
2018-03-27T15:27:59.783Z,28.10
2018-03-27T15:30:27.250Z,24.70
2018-03-27T15:32:54.712Z,23.67
2018-03-27T15:35:22.200Z,21.40
2018-03-27T15:37:49.660Z,25.37
2018-03-27T15:40:17.119Z,24.73
2018-03-27T15:42:44.591Z,29.13
2018-03-27T15:45:12.053Z,23.73
2018-03-27T15:47:39.515Z,25.80
2018-03-27T15:50:07.770Z,20.47
2018-03-27T15:52:35.230Z,22.00
2018-03-27T15:55:02.803Z,21.53
2018-03-27T15:57:30.308Z,22.20
2018-03-27T15:59:57.767Z,25.33
2018-03-27T16:02:25.231Z,20.83
2018-03-27T16:04:52.725Z,24.33
2018-03-27T16:07:20.206Z,24.40
2018-03-27T16:09:47.678Z,33.73
2018-03-27T16:12:15.170Z,20.63
2018-03-27T16:14:42.654Z,26.40
2018-03-27T16:17:10.115Z,25.97
2018-03-27T16:19:37.615Z,25.30
2018-03-27T16:22:05.088Z,32.77
2018-03-27T16:24:32.544Z,30.70
2018-03-27T16:27:00.023Z,27.23
2018-03-27T16:29:27.482Z,28.37
2018-03-27T16:31:54.961Z,25.03
2018-03-27T16:34:23.212Z,22.73
2018-03-27T16:36:50.799Z,23.13
2018-03-27T16:39:19.030Z,24.20
2018-03-27T16:41:46.523Z,20.70
2018-03-27T16:44:15.526Z,22.87
2018-03-27T16:46:43.886Z,23.60
2018-03-27T16:49:11.411Z,20.13
2018-03-27T16:51:39.221Z,28.10
2018-03-27T16:54:06.778Z,24.80
2018-03-27T16:56:35.146Z,27.67
2018-03-27T16:59:02.620Z,24.10
2018-03-27T17:01:30.837Z,23.70
2018-03-27T17:03:58.311Z,25.70
2018-03-27T17:06:25.805Z,24.93
2018-03-27T17:08:54.053Z,35.00
2018-03-27T17:11:21.513Z,26.43
2018-03-27T17:13:49.035Z,25.87
2018-03-27T17:16:16.499Z,26.73
2018-03-27T17:18:43.966Z,31.43
2018-03-27T17:21:11.451Z,31.23
2018-03-27T17:23:39.011Z,29.77
2018-03-27T17:26:06.536Z,24.50
2018-03-27T17:28:34.035Z,24.33
2018-03-27T17:31:01.607Z,30.10
2018-03-27T17:33:29.849Z,28.07
2018-03-27T17:35:57.342Z,28.20
2018-03-27T17:38:25.590Z,32.23
2018-03-27T17:40:54.594Z,29.20
2018-03-27T17:43:22.084Z,27.20
2018-03-27T17:45:49.545Z,31.37
2018-03-27T17:48:17.033Z,31.20
2018-03-27T17:50:44.523Z,30.40
2018-03-27T17:53:13.178Z,36.17
2018-03-27T17:55:40.643Z,26.87
2018-03-27T17:58:08.138Z,30.20
2018-03-27T18:00:36.361Z,40.30
2018-03-27T18:03:04.083Z,29.00
2018-03-27T18:05:31.611Z,32.67
2018-03-27T18:07:59.083Z,31.20
2018-03-27T18:10:27.342Z,36.03
2018-03-27T18:12:54.835Z,35.83
2018-03-27T18:15:22.371Z,39.00
2018-03-27T18:17:50.610Z,29.53
2018-03-27T18:20:18.086Z,30.43
2018-03-27T18:22:46.316Z,27.00
2018-03-27T18:25:13.781Z,28.70
2018-03-27T18:27:41.265Z,27.47
2018-03-27T18:30:08.731Z,30.27
2018-03-27T18:32:36.271Z,24.67
2018-03-27T18:35:03.740Z,27.10
2018-03-27T18:37:31.257Z,31.73
2018-03-27T18:39:58.735Z,25.80
2018-03-27T18:42:26.962Z,30.37
2018-03-27T18:44:55.247Z,25.17
2018-03-27T18:47:23.490Z,26.63
2018-03-27T18:49:50.956Z,29.07
2018-03-27T18:52:18.435Z,26.20
2018-03-27T18:54:45.967Z,24.63
2018-03-27T18:57:13.427Z,27.60
2018-03-27T18:59:41.698Z,36.90
2018-03-27T19:02:09.191Z,35.53
2018-03-27T19:04:38.071Z,30.40
2018-03-27T19:07:06.423Z,28.37
2018-03-27T19:09:33.914Z,23.90
2018-03-27T19:12:02.103Z,24.60
2018-03-27T19:14:29.575Z,28.27
2018-03-27T19:16:57.065Z,34.97
2018-03-27T19:19:24.657Z,36.97
2018-03-27T19:21:52.203Z,30.40
2018-03-27T19:24:20.423Z,39.17
2018-03-27T19:26:47.968Z,27.87
2018-03-27T19:29:15.443Z,29.97
2018-03-27T19:31:42.908Z,32.03
2018-03-27T19:34:10.523Z,32.90
2018-03-27T19:36:38.031Z,36.13
2018-03-27T19:39:05.503Z,42.97
2018-03-27T19:41:32.983Z,35.93
2018-03-27T19:44:01.216Z,37.20
2018-03-27T19:46:28.699Z,36.83
2018-03-27T19:48:56.174Z,44.43
2018-03-27T19:51:24.411Z,27.27
2018-03-27T19:53:51.890Z,29.70
2018-03-27T19:56:19.356Z,36.23
2018-03-27T19:58:47.641Z,33.63
2018-03-27T20:01:15.979Z,39.50
2018-03-27T20:03:43.550Z,30.03
2018-03-27T20:06:11.022Z,28.63
2018-03-27T20:08:38.622Z,31.40
2018-03-27T20:11:06.106Z,31.33
2018-03-27T20:13:34.351Z,36.30
2018-03-27T20:16:01.841Z,32.43
2018-03-27T20:18:29.318Z,37.37
2018-03-27T20:20:59.301Z,31.07
2018-03-27T20:23:26.785Z,32.70
2018-03-27T20:25:54.250Z,40.13
2018-03-27T20:28:21.910Z,39.37
2018-03-27T20:30:49.370Z,29.50
2018-03-27T20:33:16.830Z,33.77
2018-03-27T20:35:45.083Z,32.47
2018-03-27T20:38:12.718Z,34.80
2018-03-27T20:40:40.123Z,33.90
2018-03-27T20:43:07.618Z,41.43
2018-03-27T20:45:35.082Z,31.70
2018-03-27T20:48:04.025Z,42.13
2018-03-27T20:50:31.580Z,32.33
2018-03-27T20:52:59.199Z,32.20
2018-03-27T20:55:26.785Z,38.73
2018-03-27T20:57:55.063Z,35.87
2018-03-27T21:00:22.542Z,39.23
2018-03-27T21:02:50.003Z,46.93
2018-03-27T21:05:18.258Z,43.63
2018-03-27T21:07:46.554Z,35.50
2018-03-27T21:10:14.792Z,44.33
2018-03-27T21:12:43.043Z,42.70
2018-03-27T21:15:10.523Z,45.10
2018-03-27T21:17:37.994Z,50.90
2018-03-27T21:20:05.491Z,47.47
2018-03-27T21:22:32.975Z,36.07
2018-03-27T21:25:00.440Z,47.30
2018-03-27T21:27:27.907Z,38.77
2018-03-27T21:29:55.387Z,45.07
2018-03-27T21:32:22.948Z,41.40
2018-03-27T21:34:50.403Z,55.93
2018-03-27T21:37:17.963Z,45.67
2018-03-27T21:39:45.426Z,62.50
2018-03-27T21:42:12.971Z,58.67
2018-03-27T21:44:40.460Z,53.87
2018-03-27T21:47:08.687Z,47.67
2018-03-27T21:49:36.146Z,50.70
2018-03-27T21:52:03.657Z,50.53
2018-03-27T21:54:31.876Z,53.60
2018-03-27T21:56:59.338Z,48.83
2018-03-27T21:59:26.838Z,62.30
2018-03-27T22:01:55.071Z,49.80
2018-03-27T22:04:22.527Z,59.97
2018-03-27T22:06:49.995Z,62.73
2018-03-27T22:09:17.456Z,53.47
2018-03-27T22:11:44.939Z,43.83
2018-03-27T22:14:13.184Z,55.40
2018-03-27T22:16:40.638Z,58.57
2018-03-27T22:19:08.114Z,43.13
2018-03-27T22:21:36.350Z,63.93
2018-03-27T22:24:03.824Z,58.23
2018-03-27T22:26:31.998Z,51.13
2018-03-27T22:28:59.564Z,89.57
2018-03-27T22:31:27.063Z,61.77
2018-03-27T22:33:54.492Z,60.53
2018-03-27T22:36:22.735Z,83.07
2018-03-27T22:38:50.200Z,67.83
2018-03-27T22:41:17.656Z,65.07
2018-03-27T22:43:45.223Z,63.10
2018-03-27T22:46:12.696Z,70.77
2018-03-27T22:48:40.918Z,68.70
2018-03-27T22:51:09.446Z,70.00
2018-03-27T22:53:36.906Z,59.60
2018-03-27T22:56:05.126Z,69.43
2018-03-27T22:58:32.606Z,73.97
2018-03-27T23:01:00.092Z,93.37
2018-03-27T23:03:28.347Z,89.47
2018-03-27T23:05:55.824Z,83.60
2018-03-27T23:08:23.281Z,70.57
2018-03-27T23:10:50.825Z,69.30
2018-03-27T23:13:18.299Z,68.87
2018-03-27T23:15:46.543Z,83.83
2018-03-27T23:18:14.050Z,67.47
2018-03-27T23:20:42.288Z,81.57
2018-03-27T23:23:09.739Z,71.13
2018-03-27T23:25:37.201Z,85.87
2018-03-27T23:28:05.159Z,98.63
2018-03-27T23:30:32.630Z,91.00
2018-03-27T23:33:00.103Z,75.33
2018-03-27T23:35:28.351Z,95.80
2018-03-27T23:37:55.810Z,127.20
2018-03-27T23:40:23.283Z,104.03
2018-03-27T23:42:50.851Z,118.43
2018-03-27T23:45:18.323Z,135.20
2018-03-27T23:47:46.551Z,126.40
2018-03-27T23:50:14.027Z,99.23
2018-03-27T23:52:41.599Z,95.07
2018-03-27T23:55:09.836Z,82.23
2018-03-27T23:57:37.428Z,104.27
